createdAt,value
2019-05-02T00:01:08.799Z,14.87
2019-05-02T00:03:41.244Z,14.57
2019-05-02T00:06:07.400Z,15.67
2019-05-02T00:08:35.527Z,13.63
2019-05-02T00:11:04.467Z,15.87
2019-05-02T00:13:33.383Z,17.57
2019-05-02T00:16:02.291Z,15.47
2019-05-02T00:18:31.912Z,17.37
2019-05-02T00:21:01.420Z,17.25
2019-05-02T00:23:29.280Z,15.10
2019-05-02T00:25:57.885Z,14.37
2019-05-02T00:28:26.791Z,14.20
2019-05-02T00:30:55.725Z,13.27
2019-05-02T00:33:29.331Z,14.53
2019-05-02T00:35:53.513Z,13.63
2019-05-02T00:38:22.383Z,13.27
2019-05-02T00:40:51.273Z,14.23
2019-05-02T00:43:20.150Z,15.53
2019-05-02T00:45:49.033Z,14.93
2019-05-02T00:48:23.253Z,14.50
2019-05-02T00:50:52.525Z,16.03
2019-05-02T00:53:20.754Z,16.03
2019-05-02T00:55:49.647Z,14.43
2019-05-02T00:58:18.554Z,17.90
2019-05-02T01:01:06.572Z,15.07
2019-05-02T01:03:35.564Z,15.50
2019-05-02T01:06:04.499Z,14.53
2019-05-02T01:08:35.730Z,16.07
2019-05-02T01:11:02.270Z,15.57
2019-05-02T01:13:31.144Z,17.37
2019-05-02T01:16:00.049Z,15.10
2019-05-02T01:18:28.946Z,15.60
2019-05-02T01:20:58.087Z,16.33
2019-05-02T01:23:27.559Z,15.53
2019-05-02T01:25:55.669Z,13.60
2019-05-02T01:28:49.264Z,16.17
2019-05-02T01:31:33.640Z,15.10
2019-05-02T01:34:13.070Z,14.30
2019-05-02T01:36:49.190Z,15.03
2019-05-02T01:39:18.125Z,16.80
2019-05-02T01:41:47.021Z,15.53
2019-05-02T01:44:15.903Z,15.80
2019-05-02T01:46:44.788Z,16.33
2019-05-02T01:49:16.861Z,14.67
2019-05-02T01:51:47.331Z,15.93
2019-05-02T01:54:11.525Z,20.30
2019-05-02T01:56:40.358Z,20.70
2019-05-02T01:59:09.269Z,23.90
2019-05-02T02:01:38.154Z,28.67
2019-05-02T02:04:07.083Z,18.03
2019-05-02T02:06:38.892Z,18.27
2019-05-02T02:09:08.494Z,16.77
2019-05-02T02:11:35.840Z,17.53
2019-05-02T02:14:07.250Z,14.33
2019-05-02T02:16:35.317Z,17.73
2019-05-02T02:19:09.927Z,17.37
2019-05-02T02:21:43.951Z,17.90
2019-05-02T02:24:38.466Z,19.00
2019-05-02T02:27:06.523Z,16.93
2019-05-02T02:29:39.041Z,16.53
2019-05-02T02:32:04.322Z,16.60
2019-05-02T02:34:33.197Z,18.57
2019-05-02T02:37:05.547Z,17.17
2019-05-02T02:39:30.995Z,18.87
2019-05-02T02:41:59.885Z,18.30
2019-05-02T02:44:48.926Z,19.60
2019-05-02T02:47:18.995Z,18.20
2019-05-02T02:49:46.699Z,17.00
2019-05-02T02:52:15.566Z,19.00
2019-05-02T02:54:45.006Z,18.10
2019-05-02T02:57:25.756Z,18.63
2019-05-02T02:59:42.220Z,16.50
2019-05-02T03:02:12.150Z,18.70
2019-05-02T03:04:43.944Z,19.43
2019-05-02T03:07:08.926Z,21.17
2019-05-02T03:09:37.792Z,23.07
2019-05-02T03:12:24.355Z,21.00
2019-05-02T03:14:55.069Z,21.13
2019-05-02T03:17:26.470Z,22.87
2019-05-02T03:19:54.505Z,21.47
2019-05-02T03:22:21.789Z,19.80
2019-05-02T03:24:50.655Z,21.30
2019-05-02T03:27:19.566Z,21.23
2019-05-02T03:29:48.435Z,20.60
2019-05-02T03:32:31.528Z,22.27
2019-05-02T03:34:51.957Z,21.60
2019-05-02T03:37:15.224Z,22.53
2019-05-02T03:39:49.387Z,21.87
2019-05-02T03:42:13.021Z,20.80
2019-05-02T03:44:42.034Z,21.83
2019-05-02T03:47:10.824Z,22.93
2019-05-02T03:49:41.064Z,21.40
2019-05-02T03:52:08.684Z,22.80
2019-05-02T03:54:49.023Z,23.67
2019-05-02T03:57:06.534Z,23.87
2019-05-02T03:59:38.506Z,24.03
2019-05-02T04:02:04.349Z,24.27
2019-05-02T04:04:33.305Z,22.77
2019-05-02T04:07:03.493Z,25.10
2019-05-02T04:09:38.155Z,24.03
2019-05-02T04:12:01.634Z,30.23
2019-05-02T04:14:37.909Z,26.37
2019-05-02T04:16:59.452Z,36.23
2019-05-02T04:19:34.227Z,34.47
2019-05-02T04:22:01.488Z,38.03
2019-05-02T04:24:26.206Z,38.43
2019-05-02T04:26:56.388Z,49.88
2019-05-02T04:29:24.589Z,39.90
2019-05-02T04:31:53.003Z,37.43
2019-05-02T04:34:21.905Z,45.40
2019-05-02T04:36:59.807Z,41.90
2019-05-02T04:39:21.708Z,46.33
2019-05-02T04:41:48.812Z,48.03
2019-05-02T04:44:18.987Z,53.20
2019-05-02T04:46:48.875Z,55.30
2019-05-02T04:49:20.092Z,55.30
2019-05-02T04:51:50.804Z,58.13
2019-05-02T04:54:21.836Z,64.40
2019-05-02T04:56:52.340Z,61.27
2019-05-02T04:59:17.850Z,70.07
2019-05-02T05:01:48.395Z,70.20
2019-05-02T05:04:08.797Z,73.43
2019-05-02T05:06:40.740Z,72.17
2019-05-02T05:09:10.387Z,82.77
2019-05-02T05:11:35.624Z,85.47
2019-05-02T05:14:04.523Z,88.70
2019-05-02T05:16:33.434Z,94.73
2019-05-02T05:19:02.319Z,93.20
2019-05-02T05:21:31.226Z,96.93
2019-05-02T05:24:19.209Z,98.97
2019-05-02T05:26:50.952Z,96.33
2019-05-02T05:29:23.241Z,101.50
2019-05-02T05:31:48.738Z,119.50
2019-05-02T05:34:17.630Z,119.47
2019-05-02T05:36:48.166Z,105.80
2019-05-02T05:39:17.185Z,107.07
2019-05-02T05:41:50.542Z,101.23
2019-05-02T05:44:13.242Z,143.20
2019-05-02T05:46:42.658Z,104.70
2019-05-02T05:49:20.248Z,91.10
2019-05-02T05:51:39.925Z,109.30
2019-05-02T05:54:08.913Z,97.13
2019-05-02T05:56:42.880Z,86.40
2019-05-02T05:59:07.775Z,85.63
2019-05-02T06:01:36.409Z,87.77
2019-05-02T06:04:04.694Z,81.63
2019-05-02T06:06:33.840Z,70.57
2019-05-02T06:09:02.726Z,81.47
2019-05-02T06:11:31.652Z,85.40
2019-05-02T06:14:00.518Z,94.05
2019-05-02T06:16:29.423Z,71.60
2019-05-02T06:18:58.344Z,69.77
2019-05-02T06:21:27.232Z,67.33
2019-05-02T06:23:56.122Z,87.43
2019-05-02T06:26:25.044Z,66.33
2019-05-02T06:28:53.928Z,65.33
2019-05-02T06:31:22.834Z,66.53
2019-05-02T06:33:51.842Z,69.57
2019-05-02T06:36:20.705Z,71.07
2019-05-02T06:38:52.174Z,68.37
2019-05-02T06:41:21.077Z,64.13
2019-05-02T06:43:48.321Z,59.07
2019-05-02T06:46:21.551Z,56.40
2019-05-02T06:48:48.232Z,58.97
2019-05-02T06:51:19.658Z,54.80
2019-05-02T06:53:47.071Z,57.00
2019-05-02T06:56:14.516Z,51.13
2019-05-02T06:58:44.112Z,51.50
2019-05-02T07:01:20.661Z,51.47
2019-05-02T07:03:51.748Z,45.70
2019-05-02T07:06:23.745Z,44.03
2019-05-02T07:08:59.775Z,47.90
2019-05-02T07:11:39.053Z,45.27
2019-05-02T07:14:13.391Z,46.25
2019-05-02T07:16:49.586Z,44.98
2019-05-02T07:19:30.765Z,44.23
2019-05-02T07:24:48.547Z,44.45
2019-05-02T07:27:18.818Z,43.92
2019-05-02T07:30:09.575Z,47.13
2019-05-02T07:32:56.426Z,48.33
2019-05-02T07:35:28.563Z,45.83
2019-05-02T07:38:03.625Z,48.35
2019-05-02T07:40:37.963Z,47.20
2019-05-02T07:43:22.298Z,42.62
2019-05-02T07:45:55.006Z,50.03
2019-05-02T07:48:28.204Z,44.45
2019-05-02T07:51:05.435Z,45.43
2019-05-02T07:53:37.371Z,50.60
2019-05-02T07:56:12.531Z,47.05
2019-05-02T07:58:46.982Z,45.92
2019-05-02T08:01:13.527Z,46.75
2019-05-02T08:03:42.002Z,46.75
2019-05-02T08:06:11.107Z,47.75
2019-05-02T08:08:41.483Z,46.33
2019-05-02T08:11:18.033Z,45.83
2019-05-02T08:13:49.463Z,45.12
2019-05-02T08:16:16.523Z,45.10
2019-05-02T08:18:45.663Z,44.63
2019-05-02T08:21:14.698Z,44.55
2019-05-02T08:23:46.595Z,43.52
2019-05-02T08:26:21.564Z,42.27
2019-05-02T08:28:55.677Z,43.68
2019-05-02T08:31:30.059Z,45.25
2019-05-02T08:34:05.310Z,45.60
2019-05-02T08:36:33.995Z,44.67
2019-05-02T08:39:03.045Z,43.38
2019-05-02T08:41:38.272Z,45.38
2019-05-02T08:44:18.515Z,43.40
2019-05-02T08:46:51.416Z,49.23
2019-05-02T08:52:02.092Z,42.95
2019-05-02T08:54:34.233Z,44.08
2019-05-02T08:57:03.170Z,42.55
2019-05-02T08:59:32.266Z,42.98
2019-05-02T09:02:09.205Z,44.53
2019-05-02T09:04:57.324Z,42.10
2019-05-02T09:07:15.582Z,43.15
2019-05-02T09:09:49.539Z,43.20
2019-05-02T09:12:24.003Z,43.95
2019-05-02T09:14:53.120Z,40.78
2019-05-02T09:17:38.500Z,44.55
2019-05-02T09:20:21.024Z,43.58
2019-05-02T09:22:52.172Z,41.08
2019-05-02T09:25:24.191Z,43.50
2019-05-02T09:27:56.227Z,43.85
2019-05-02T09:30:35.266Z,43.42
2019-05-02T09:33:07.453Z,43.73
2019-05-02T09:35:44.133Z,42.23
2019-05-02T09:38:18.223Z,40.75
2019-05-02T09:40:56.134Z,39.30
2019-05-02T09:43:22.932Z,37.42
2019-05-02T09:45:59.736Z,43.50
2019-05-02T09:48:28.934Z,37.40
2019-05-02T09:51:03.103Z,36.15
2019-05-02T09:53:47.665Z,36.73
2019-05-02T09:56:16.626Z,38.08
2019-05-02T09:58:55.336Z,33.40
2019-05-02T10:01:32.733Z,37.33
2019-05-02T10:04:06.544Z,36.48
2019-05-02T10:06:39.271Z,35.05
2019-05-02T10:09:09.582Z,36.38
2019-05-02T10:12:04.647Z,37.80
2019-05-02T10:14:42.117Z,38.13
2019-05-02T10:17:18.433Z,38.17
2019-05-02T10:19:56.776Z,37.95
2019-05-02T10:22:26.711Z,42.23
2019-05-02T10:25:14.896Z,37.35
2019-05-02T10:27:47.506Z,38.02
2019-05-02T10:30:21.870Z,35.88
2019-05-02T10:32:57.292Z,38.50
2019-05-02T10:35:28.063Z,38.60
2019-05-02T10:37:57.596Z,39.78
2019-05-02T10:40:26.881Z,40.70
2019-05-02T10:42:55.847Z,42.85
2019-05-02T10:45:24.956Z,41.37
2019-05-02T10:48:02.183Z,42.38
2019-05-02T10:50:49.701Z,41.25
2019-05-02T10:53:21.908Z,42.67
2019-05-02T10:55:56.229Z,42.40
2019-05-02T10:58:31.969Z,38.85
2019-05-02T11:01:02.334Z,40.88
2019-05-02T11:03:42.883Z,42.25
2019-05-02T11:06:07.761Z,44.03
2019-05-02T11:08:45.721Z,45.57
2019-05-02T11:11:12.571Z,44.83
2019-05-02T11:13:53.295Z,49.85
2019-05-02T11:16:43.467Z,53.23
2019-05-02T11:19:23.915Z,53.50
2019-05-02T11:21:58.656Z,55.73
2019-05-02T11:24:28.755Z,53.27
2019-05-02T11:27:02.205Z,54.37
2019-05-02T11:29:32.248Z,57.47
2019-05-02T11:32:18.559Z,53.33
2019-05-02T11:34:53.969Z,59.10
2019-05-02T11:37:23.407Z,59.80
2019-05-02T11:39:59.577Z,59.07
2019-05-02T11:42:27.352Z,55.60
2019-05-02T11:45:05.563Z,59.43
2019-05-02T11:47:42.160Z,56.50
2019-05-02T11:50:13.014Z,52.43
2019-05-02T11:52:46.519Z,55.67
2019-05-02T11:55:24.724Z,59.90
2019-05-02T12:00:39.650Z,61.87
2019-05-02T12:03:22.437Z,64.13
2019-05-02T12:06:01.988Z,62.80
2019-05-02T12:09:25.848Z,64.77
2019-05-02T12:11:24.417Z,59.13
2019-05-02T12:13:57.070Z,67.03
2019-05-02T12:16:25.097Z,70.80
2019-05-02T12:19:07.903Z,71.90
2019-05-02T12:21:26.200Z,68.70
2019-05-02T12:24:02.922Z,66.10
2019-05-02T12:26:34.807Z,73.27
2019-05-02T12:29:06.901Z,81.40
2019-05-02T12:31:47.292Z,71.77
2019-05-02T12:34:14.654Z,77.33
2019-05-02T12:36:49.969Z,79.83
2019-05-02T12:39:22.146Z,79.80
2019-05-02T12:41:53.968Z,87.62
2019-05-02T12:44:28.630Z,85.87
2019-05-02T12:47:09.266Z,83.50
2019-05-02T12:49:42.961Z,86.83
2019-05-02T12:52:16.736Z,88.87
2019-05-02T12:54:48.039Z,84.10
2019-05-02T12:57:28.416Z,83.63
2019-05-02T13:00:12.872Z,83.07
2019-05-02T13:03:26.170Z,80.03
2019-05-02T13:05:55.189Z,81.33
2019-05-02T13:08:32.272Z,74.13
2019-05-02T13:11:23.718Z,77.93
2019-05-02T13:14:03.965Z,81.47
2019-05-02T13:16:34.514Z,84.43
2019-05-02T13:19:13.559Z,84.80
2019-05-02T13:22:28.161Z,86.20
2019-05-02T13:28:53.143Z,87.13
2019-05-02T13:31:39.759Z,86.07
2019-05-02T13:34:24.542Z,80.90
2019-05-02T13:36:53.639Z,71.30
2019-05-02T13:39:33.434Z,68.30
2019-05-02T13:42:08.894Z,56.53
2019-05-02T13:44:38.315Z,57.47
2019-05-02T13:47:09.428Z,56.47
2019-05-02T13:49:52.904Z,51.00
2019-05-02T13:52:12.478Z,52.13
2019-05-02T13:54:42.712Z,49.83
2019-05-02T13:57:12.586Z,37.20
2019-05-02T13:59:44.578Z,35.03
2019-05-02T14:02:52.019Z,36.63
2019-05-02T14:05:22.210Z,32.27
2019-05-02T14:07:55.658Z,33.87
2019-05-02T14:10:41.559Z,31.07
2019-05-02T14:13:08.445Z,33.17
2019-05-02T14:15:47.235Z,28.43
2019-05-02T14:18:28.624Z,27.43
2019-05-02T14:20:53.639Z,29.87
2019-05-02T14:23:23.038Z,30.67
2019-05-02T14:25:53.074Z,32.27
2019-05-02T14:28:26.625Z,30.23
2019-05-02T14:30:54.638Z,30.27
2019-05-02T14:33:43.410Z,30.57
2019-05-02T14:36:13.660Z,35.83
2019-05-02T14:38:43.834Z,38.30
2019-05-02T14:41:14.736Z,35.67
2019-05-02T14:43:58.937Z,32.83
2019-05-02T14:46:39.316Z,33.70
2019-05-02T14:49:04.215Z,31.13
2019-05-02T14:51:36.470Z,33.37
2019-05-02T14:54:14.705Z,32.17
2019-05-02T14:56:49.727Z,34.20
2019-05-02T14:59:20.043Z,32.60
2019-05-02T15:01:52.757Z,36.77
2019-05-02T15:04:27.396Z,33.80
2019-05-02T15:07:03.024Z,32.83
2019-05-02T15:09:34.459Z,34.13
2019-05-02T15:12:03.698Z,33.07
2019-05-02T15:14:34.126Z,35.53
2019-05-02T15:17:03.240Z,38.13
2019-05-02T15:19:32.910Z,31.57
2019-05-02T15:22:02.093Z,31.53
2019-05-02T15:24:33.324Z,29.07
2019-05-02T15:27:05.567Z,28.20
2019-05-02T15:29:27.790Z,31.30
2019-05-02T15:32:37.374Z,33.67
2019-05-02T15:35:08.766Z,35.33
2019-05-02T15:37:37.680Z,28.20
2019-05-02T15:42:35.558Z,30.00
2019-05-02T15:45:05.780Z,32.00
2019-05-02T15:47:37.016Z,35.37
2019-05-02T15:50:03.039Z,35.27
2019-05-02T15:52:32.670Z,29.53
2019-05-02T15:55:03.881Z,30.53
2019-05-02T15:57:38.133Z,29.97
2019-05-02T15:59:58.486Z,31.90
2019-05-02T16:02:27.403Z,32.27
2019-05-02T16:04:57.107Z,32.00
2019-05-02T16:07:25.201Z,34.30
2019-05-02T16:09:57.277Z,29.40
2019-05-02T16:12:27.078Z,30.83
2019-05-02T16:14:52.785Z,34.00
2019-05-02T16:17:25.447Z,30.00
2019-05-02T16:19:52.579Z,34.23
2019-05-02T16:22:22.885Z,32.33
2019-05-02T16:24:53.368Z,30.13
2019-05-02T16:27:24.420Z,32.83
2019-05-02T16:29:50.100Z,31.03
2019-05-02T16:32:42.073Z,34.10
2019-05-02T16:35:13.515Z,34.57
2019-05-02T16:37:38.752Z,32.63
2019-05-02T16:40:07.976Z,35.87
2019-05-02T16:42:37.258Z,36.13
2019-05-02T16:45:07.550Z,35.57
2019-05-02T16:47:36.424Z,36.77
2019-05-02T16:50:06.774Z,36.77
2019-05-02T16:52:38.126Z,35.83
2019-05-02T16:55:05.264Z,37.27
2019-05-02T16:57:35.183Z,33.30
2019-05-02T17:00:06.161Z,36.17
2019-05-02T17:02:32.450Z,38.37
2019-05-02T17:05:08.023Z,26.97
2019-05-02T17:07:44.986Z,26.87
2019-05-02T17:10:21.340Z,21.73
2019-05-02T17:12:52.905Z,14.87
2019-05-02T17:15:33.864Z,11.70
2019-05-02T17:17:59.694Z,10.83
2019-05-02T17:20:28.552Z,9.80
2019-05-02T17:23:05.144Z,10.90
2019-05-02T17:25:26.435Z,11.37
2019-05-02T17:28:01.103Z,9.47
2019-05-02T17:30:24.218Z,9.00
2019-05-02T17:32:53.122Z,9.53
2019-05-02T17:35:22.217Z,11.70
2019-05-02T17:37:52.458Z,9.23
2019-05-02T17:40:22.481Z,9.60
2019-05-02T17:42:48.753Z,8.43
2019-05-02T17:45:17.678Z,5.87
2019-05-02T17:47:47.323Z,5.33
2019-05-02T17:50:36.379Z,4.37
2019-05-02T17:53:05.450Z,6.37
2019-05-02T17:55:40.427Z,7.80
2019-05-02T17:58:10.108Z,4.13
2019-05-02T18:00:33.372Z,5.43
2019-05-02T18:03:02.483Z,7.53
2019-05-02T18:05:32.036Z,8.33
2019-05-02T18:07:59.545Z,6.05
2019-05-02T18:10:28.453Z,8.23
2019-05-02T18:12:59.913Z,5.70
2019-05-02T18:15:29.940Z,5.67
2019-05-02T18:17:59.673Z,6.67
2019-05-02T18:20:25.350Z,6.17
2019-05-02T18:22:52.853Z,5.43
2019-05-02T18:25:25.238Z,6.07
2019-05-02T18:27:51.765Z,5.57
2019-05-02T18:30:22.855Z,3.93
2019-05-02T18:32:49.229Z,6.83
2019-05-02T18:35:18.114Z,6.00
2019-05-02T18:37:47.021Z,5.83
2019-05-02T18:40:20.117Z,3.73
2019-05-02T18:42:44.869Z,4.70
2019-05-02T18:45:15.457Z,5.60
2019-05-02T18:47:44.348Z,5.73
2019-05-02T18:50:31.750Z,4.30
2019-05-02T18:52:58.730Z,6.23
2019-05-02T18:55:27.616Z,7.03
2019-05-02T18:57:57.102Z,8.80
2019-05-02T19:00:27.921Z,3.60
2019-05-02T19:02:56.481Z,7.40
2019-05-02T19:05:23.171Z,7.27
2019-05-02T19:07:56.228Z,5.47
2019-05-02T19:10:20.944Z,6.10
2019-05-02T19:12:49.796Z,4.83
2019-05-02T19:15:18.680Z,4.20
2019-05-02T19:17:47.565Z,5.10
2019-05-02T19:20:32.539Z,3.87
2019-05-02T19:23:00.324Z,3.30
2019-05-02T19:25:29.189Z,4.33
2019-05-02T19:28:02.907Z,5.97
2019-05-02T19:30:32.636Z,4.83
2019-05-02T19:33:03.662Z,4.27
2019-05-02T19:35:29.281Z,5.60
2019-05-02T19:37:58.162Z,5.63
2019-05-02T19:40:28.360Z,5.70
2019-05-02T19:42:57.306Z,4.03
2019-05-02T19:45:24.849Z,6.67
2019-05-02T19:47:57.595Z,4.60
2019-05-02T19:50:43.101Z,4.73
2019-05-02T19:53:05.156Z,2.83
2019-05-02T19:55:34.224Z,2.97
2019-05-02T19:58:06.406Z,3.43
2019-05-02T20:00:36.687Z,3.73
2019-05-02T20:03:01.831Z,3.70
2019-05-02T20:05:29.847Z,3.23
2019-05-02T20:07:58.729Z,6.90
2019-05-02T20:10:27.585Z,3.80
2019-05-02T20:12:56.457Z,2.93
2019-05-02T20:15:26.987Z,3.30
2019-05-02T20:18:00.440Z,4.93
2019-05-02T20:20:43.338Z,3.37
2019-05-02T20:23:16.193Z,7.50
2019-05-02T20:25:42.634Z,5.23
2019-05-02T20:28:10.031Z,5.78
2019-05-02T20:30:38.932Z,8.00
2019-05-02T20:33:07.848Z,7.40
2019-05-02T20:35:36.705Z,4.60
2019-05-02T20:38:05.643Z,4.50
2019-05-02T20:40:34.604Z,5.30
2019-05-02T20:43:03.512Z,6.40
2019-05-02T20:45:32.451Z,7.50
2019-05-02T20:48:02.166Z,6.37
2019-05-02T20:50:31.809Z,7.27
2019-05-02T20:52:59.220Z,6.30
2019-05-02T20:55:28.154Z,5.77
2019-05-02T20:57:57.071Z,4.10
2019-05-02T21:00:26.030Z,6.20
2019-05-02T21:02:54.965Z,9.20
2019-05-02T21:05:24.811Z,5.97
2019-05-02T21:08:10.438Z,5.60
2019-05-02T21:10:41.738Z,9.20
2019-05-02T21:13:10.026Z,6.67
2019-05-02T21:15:38.946Z,7.67
2019-05-02T21:18:07.946Z,5.90
2019-05-02T21:20:36.881Z,5.77
2019-05-02T21:23:05.916Z,7.53
2019-05-02T21:25:34.770Z,7.77
2019-05-02T21:28:03.745Z,7.13
2019-05-02T21:30:32.691Z,6.77
2019-05-02T21:33:02.824Z,9.03
2019-05-02T21:35:31.920Z,7.60
2019-05-02T21:37:59.520Z,7.40
2019-05-02T21:40:28.491Z,6.57
2019-05-02T21:42:57.398Z,9.67
2019-05-02T21:45:26.361Z,7.63
2019-05-02T21:47:55.284Z,8.10
2019-05-02T21:50:42.725Z,5.67
2019-05-02T21:53:22.209Z,5.50
2019-05-02T21:55:54.894Z,7.20
2019-05-02T21:58:23.817Z,6.50
2019-05-02T22:00:58.722Z,9.90
2019-05-02T22:03:27.635Z,13.30
2019-05-02T22:05:56.623Z,11.80
2019-05-02T22:08:25.524Z,9.23
2019-05-02T22:10:54.465Z,10.33
2019-05-02T22:13:23.392Z,8.83
2019-05-02T22:15:52.315Z,7.87
2019-05-02T22:18:21.709Z,8.00
2019-05-02T22:20:52.176Z,8.17
2019-05-02T22:23:19.116Z,6.93
2019-05-02T22:25:48.033Z,10.53
2019-05-02T22:28:16.999Z,8.00
2019-05-02T22:30:45.951Z,15.43
2019-05-02T22:33:14.878Z,12.57
2019-05-02T22:35:43.823Z,11.53
2019-05-02T22:38:18.351Z,10.78
2019-05-02T22:40:48.207Z,12.63
2019-05-02T22:43:17.099Z,9.90
2019-05-02T22:45:46.021Z,11.60
2019-05-02T22:48:14.957Z,14.80
2019-05-02T22:50:43.906Z,10.63
2019-05-02T22:53:13.999Z,7.43
2019-05-02T22:55:42.541Z,6.97
2019-05-02T22:58:10.666Z,11.00
2019-05-02T23:00:41.547Z,9.27
2019-05-02T23:03:08.576Z,9.10
2019-05-02T23:05:37.511Z,10.50
2019-05-02T23:08:06.492Z,11.67
2019-05-02T23:10:35.406Z,9.70
2019-05-02T23:13:04.414Z,6.87
2019-05-02T23:15:33.378Z,13.50
2019-05-02T23:18:02.342Z,9.93
2019-05-02T23:20:32.888Z,12.77
2019-05-02T23:23:01.891Z,10.60
2019-05-02T23:25:47.039Z,11.23
2019-05-02T23:28:19.176Z,11.13
2019-05-02T23:30:48.115Z,11.63
2019-05-02T23:33:17.053Z,11.87
2019-05-02T23:35:45.970Z,9.57
2019-05-02T23:38:14.915Z,9.37
2019-05-02T23:40:43.847Z,12.50
2019-05-02T23:43:12.853Z,10.07
2019-05-02T23:45:42.252Z,9.70
2019-05-02T23:48:12.535Z,11.23
2019-05-02T23:50:39.615Z,9.63
2019-05-02T23:53:08.610Z,13.60
2019-05-02T23:55:37.537Z,11.30
2019-05-02T23:58:06.508Z,9.50
